Time;durP1;ratioP1;P1;durP2;ratioP2;P2;SDS_P1;SDS_P2;PMS_P1;PMS_P2;Temp;Humidity;BMP_temperature;BMP_pressure;BME280_temperature;BME280_humidity;BME280_pressure;Samples;Min_cycle;Max_cycle;Signal;HPM_P1;HPM_P2
2023/11/27 00:01:28;;;;;;;;;8.25;4.50;;;;;;;;5048390;28;11455;-79
2023/11/27 00:03:55;;;;;;;;;13.75;11.75;;;;;;;;5048534;28;11491;-79
2023/11/27 00:06:24;;;;;;;;;14.75;12.00;;;;;;;;5048591;28;11552;-79
2023/11/27 00:08:53;;;;;;;;;12.00;12.00;;;;;;;;5048735;28;11533;-80
2023/11/27 00:11:21;;;;;;;;;10.00;10.00;;;;;;;;5048488;28;11565;-79
2023/11/27 00:13:48;;;;;;;;;8.50;8.50;;;;;;;;5049778;28;11572;-80
2023/11/27 00:16:19;;;;;;;;;9.50;7.75;;;;;;;;5048517;28;11451;-79
2023/11/27 00:18:48;;;;;;;;;9.75;9.75;;;;;;;;5048660;28;11505;-79
2023/11/27 00:21:15;;;;;;;;;13.00;12.00;;;;;;;;5048232;28;11446;-79
2023/11/27 00:23:44;;;;;;;;;17.50;12.75;;;;;;;;5048903;28;11538;-79
2023/11/27 00:26:11;;;;;;;;;10.25;10.00;;;;;;;;5047969;28;11681;-78
2023/11/27 00:28:38;;;;;;;;;13.50;11.00;;;;;;;;5032977;28;11559;-77
2023/11/27 00:31:09;;;;;;;;;10.75;10.75;;;;;;;;5048086;28;11487;-77
2023/11/27 00:33:36;;;;;;;;;6.50;5.25;;;;;;;;5051509;28;11606;-78
2023/11/27 00:36:04;;;;;;;;;11.75;9.50;;;;;;;;5051783;28;11473;-78
2023/11/27 00:38:32;;;;;;;;;16.75;11.50;;;;;;;;5052502;28;11560;-80
2023/11/27 00:41:01;;;;;;;;;10.25;10.25;;;;;;;;5050562;28;11527;-78
2023/11/27 00:43:29;;;;;;;;;7.75;7.50;;;;;;;;5050084;28;11449;-78
2023/11/27 00:45:56;;;;;;;;;10.75;8.50;;;;;;;;5041405;28;11453;-77
2023/11/27 00:48:25;;;;;;;;;9.25;9.25;;;;;;;;5044183;28;11474;-79
2023/11/27 00:50:52;;;;;;;;;9.75;9.75;;;;;;;;5048784;28;11493;-78
2023/11/27 00:53:19;;;;;;;;;7.25;7.25;;;;;;;;5050038;28;11488;-79
2023/11/27 00:55:47;;;;;;;;;8.00;8.00;;;;;;;;5051599;28;11469;-78
2023/11/27 00:58:15;;;;;;;;;8.00;6.50;;;;;;;;5050680;28;11470;-78
2023/11/27 01:00:43;;;;;;;;;8.50;8.00;;;;;;;;5047623;28;11395;-79
2023/11/27 01:03:10;;;;;;;;;7.75;7.75;;;;;;;;5047720;28;11542;-79
2023/11/27 01:05:37;;;;;;;;;12.00;10.25;;;;;;;;5047450;28;11439;-79
2023/11/27 01:08:05;;;;;;;;;11.00;9.50;;;;;;;;5047556;28;11445;-78
2023/11/27 01:10:32;;;;;;;;;8.75;8.75;;;;;;;;5044866;28;11461;-79
2023/11/27 01:13:00;;;;;;;;;8.75;6.00;;;;;;;;5047477;28;11486;-79
2023/11/27 01:15:28;;;;;;;;;10.50;8.00;;;;;;;;5047427;28;11491;-79
2023/11/27 01:17:56;;;;;;;;;7.50;7.50;;;;;;;;5047217;28;11438;-79
2023/11/27 01:20:25;;;;;;;;;10.00;7.75;;;;;;;;5044640;28;11524;-78
2023/11/27 01:22:52;;;;;;;;;8.00;5.00;;;;;;;;5046956;28;11455;-77
2023/11/27 01:25:21;;;;;;;;;6.00;6.00;;;;;;;;5047930;28;11444;-78
2023/11/27 01:27:51;;;;;;;;;7.75;7.75;;;;;;;;5046960;28;11431;-78
2023/11/27 01:30:22;;;;;;;;;9.25;7.75;;;;;;;;5040618;28;11563;-78
2023/11/27 01:32:51;;;;;;;;;9.50;8.00;;;;;;;;5039026;28;11502;-78
2023/11/27 01:35:21;;;;;;;;;8.00;5.00;;;;;;;;5047375;28;11555;-77
2023/11/27 01:37:51;;;;;;;;;7.00;7.00;;;;;;;;5047703;28;11469;-78
2023/11/27 01:40:19;;;;;;;;;7.00;7.00;;;;;;;;5048590;28;11431;-79
2023/11/27 01:42:46;;;;;;;;;8.75;8.00;;;;;;;;5048967;28;11446;-79
2023/11/27 01:45:13;;;;;;;;;10.50;7.50;;;;;;;;5052448;28;11475;-77
2023/11/27 01:47:41;;;;;;;;;8.50;7.25;;;;;;;;5052635;28;11463;-78
2023/11/27 01:50:11;;;;;;;;;6.00;6.00;;;;;;;;5051785;28;11448;-79
2023/11/27 01:52:39;;;;;;;;;11.75;9.00;;;;;;;;5050713;28;11462;-78
2023/11/27 01:55:08;;;;;;;;;6.75;4.75;;;;;;;;5051124;28;12285;-78
2023/11/27 01:57:37;;;;;;;;;9.00;9.00;;;;;;;;5050554;28;12325;-78
2023/11/27 02:00:06;;;;;;;;;9.50;9.50;;;;;;;;5050542;28;11538;-79
2023/11/27 02:02:34;;;;;;;;;9.00;8.25;;;;;;;;5049540;28;11473;-78
2023/11/27 02:05:01;;;;;;;;;8.00;8.00;;;;;;;;5050547;28;11519;-78
2023/11/27 02:07:29;;;;;;;;;11.25;11.25;;;;;;;;5050820;28;11603;-79
2023/11/27 02:09:57;;;;;;;;;6.00;6.00;;;;;;;;5050425;28;11683;-79
2023/11/27 02:12:25;;;;;;;;;11.25;11.25;;;;;;;;5051262;28;11445;-78
2023/11/27 02:14:53;;;;;;;;;15.75;13.50;;;;;;;;5050334;28;11570;-79
2023/11/27 02:17:21;;;;;;;;;11.50;10.25;;;;;;;;5051384;28;11671;-79
2023/11/27 02:19:48;;;;;;;;;10.25;10.25;;;;;;;;5052901;28;11568;-79
2023/11/27 02:22:15;;;;;;;;;12.50;11.00;;;;;;;;5054621;28;11529;-80
2023/11/27 02:24:44;;;;;;;;;15.50;11.75;;;;;;;;5054179;28;11662;-79
2023/11/27 02:27:11;;;;;;;;;11.25;11.25;;;;;;;;5055356;28;11555;-79
2023/11/27 02:29:38;;;;;;;;;12.75;12.75;;;;;;;;5047201;28;11540;-79
2023/11/27 02:32:06;;;;;;;;;14.25;14.25;;;;;;;;5055468;28;11486;-79
2023/11/27 02:34:34;;;;;;;;;15.00;13.50;;;;;;;;5053643;28;11532;-81
2023/11/27 02:37:02;;;;;;;;;17.50;13.75;;;;;;;;5054382;28;11571;-80
2023/11/27 02:39:29;;;;;;;;;14.00;14.00;;;;;;;;5051407;28;11530;-80
2023/11/27 02:41:59;;;;;;;;;12.00;12.00;;;;;;;;5051098;28;11543;-80
2023/11/27 02:44:26;;;;;;;;;11.75;11.50;;;;;;;;5052329;28;11513;-79
2023/11/27 02:46:53;;;;;;;;;14.25;14.25;;;;;;;;5053781;28;11590;-80
2023/11/27 02:49:21;;;;;;;;;15.75;11.00;;;;;;;;5052128;28;11525;-78
2023/11/27 02:51:48;;;;;;;;;13.25;13.25;;;;;;;;5049847;28;11567;-79
2023/11/27 02:54:15;;;;;;;;;18.75;15.00;;;;;;;;5050132;28;11642;-80
2023/11/27 02:56:43;;;;;;;;;17.00;12.00;;;;;;;;5049674;28;11602;-79
2023/11/27 02:59:11;;;;;;;;;14.25;8.75;;;;;;;;5049179;28;11553;-79
2023/11/27 03:01:38;;;;;;;;;16.00;14.00;;;;;;;;5048976;28;12274;-79
2023/11/27 03:04:06;;;;;;;;;11.00;11.00;;;;;;;;5049313;28;12132;-80
2023/11/27 03:06:33;;;;;;;;;11.75;11.75;;;;;;;;5049226;28;11560;-80
2023/11/27 03:09:00;;;;;;;;;12.75;12.75;;;;;;;;5049052;28;11570;-80
2023/11/27 03:11:27;;;;;;;;;14.00;13.75;;;;;;;;5048677;28;11557;-79
2023/11/27 03:13:55;;;;;;;;;16.50;13.50;;;;;;;;5048940;28;11629;-79
2023/11/27 03:16:23;;;;;;;;;18.25;14.00;;;;;;;;5049044;28;12384;-79
2023/11/27 03:18:53;;;;;;;;;12.75;12.75;;;;;;;;5049194;28;11565;-79
2023/11/27 03:21:21;;;;;;;;;16.00;14.25;;;;;;;;5049127;28;12307;-79
2023/11/27 03:23:48;;;;;;;;;18.00;16.75;;;;;;;;5048307;28;12185;-79
2023/11/27 03:26:16;;;;;;;;;16.00;16.00;;;;;;;;5048340;28;11576;-81
2023/11/27 03:28:44;;;;;;;;;16.75;15.00;;;;;;;;5041226;28;12402;-79
2023/11/27 03:31:11;;;;;;;;;16.25;16.25;;;;;;;;5048177;28;11629;-79
2023/11/27 03:33:39;;;;;;;;;18.50;16.00;;;;;;;;5048935;28;11640;-80
2023/11/27 03:36:07;;;;;;;;;10.25;10.25;;;;;;;;5044061;28;11592;-78
2023/11/27 03:38:34;;;;;;;;;15.50;13.25;;;;;;;;5048575;28;11486;-79
2023/11/27 03:41:03;;;;;;;;;16.25;15.50;;;;;;;;5048583;28;11537;-78
2023/11/27 03:43:32;;;;;;;;;14.00;14.00;;;;;;;;5048731;28;11562;-79
2023/11/27 03:46:00;;;;;;;;;18.25;13.75;;;;;;;;5048145;28;11534;-79
2023/11/27 03:48:27;;;;;;;;;15.75;15.75;;;;;;;;5048716;28;11570;-79
2023/11/27 03:50:56;;;;;;;;;16.50;16.50;;;;;;;;5048587;28;11528;-79
2023/11/27 03:53:23;;;;;;;;;16.25;16.25;;;;;;;;5048926;28;11569;-79
2023/11/27 03:55:51;;;;;;;;;19.75;13.50;;;;;;;;5048951;28;11679;-79
2023/11/27 03:58:18;;;;;;;;;17.50;14.00;;;;;;;;5048833;28;11680;-79
2023/11/27 04:00:46;;;;;;;;;18.25;16.00;;;;;;;;5037414;28;11521;-79
2023/11/27 04:03:13;;;;;;;;;21.25;16.50;;;;;;;;5047743;28;11717;-79
2023/11/27 04:05:40;;;;;;;;;17.50;16.75;;;;;;;;5046178;28;11528;-79
2023/11/27 04:08:09;;;;;;;;;20.25;16.75;;;;;;;;5048056;28;11558;-79
2023/11/27 04:10:36;;;;;;;;;20.00;19.50;;;;;;;;5050215;28;11569;-79
2023/11/27 04:13:04;;;;;;;;;18.00;16.25;;;;;;;;5051120;28;11699;-78
2023/11/27 04:15:31;;;;;;;;;16.00;16.00;;;;;;;;5054658;28;11568;-78
2023/11/27 04:18:00;;;;;;;;;16.75;13.00;;;;;;;;5053821;28;11550;-79
2023/11/27 04:20:27;;;;;;;;;16.00;14.50;;;;;;;;5040349;28;11576;-80
2023/11/27 04:22:56;;;;;;;;;16.50;15.50;;;;;;;;5036839;28;11664;-80
2023/11/27 04:25:24;;;;;;;;;12.00;12.00;;;;;;;;5045966;28;11580;-79
2023/11/27 04:27:52;;;;;;;;;16.00;16.00;;;;;;;;5047978;28;11524;-79
2023/11/27 04:30:19;;;;;;;;;16.75;16.75;;;;;;;;5050734;28;11672;-80
2023/11/27 04:32:48;;;;;;;;;15.75;15.75;;;;;;;;5050315;28;11640;-80
2023/11/27 04:35:15;;;;;;;;;15.75;14.00;;;;;;;;5051234;28;11546;-80
2023/11/27 04:37:42;;;;;;;;;15.50;13.50;;;;;;;;5041095;28;11551;-81
2023/11/27 04:40:14;;;;;;;;;13.00;13.00;;;;;;;;5049413;28;11694;-78
2023/11/27 04:42:43;;;;;;;;;19.75;15.25;;;;;;;;5049501;28;11552;-80
2023/11/27 04:45:11;;;;;;;;;13.75;12.25;;;;;;;;5047367;28;11614;-80
2023/11/27 04:47:38;;;;;;;;;15.00;14.00;;;;;;;;5040844;28;11575;-79
2023/11/27 04:50:07;;;;;;;;;16.00;11.75;;;;;;;;5043831;28;11558;-79
2023/11/27 04:52:34;;;;;;;;;13.25;13.25;;;;;;;;5048280;28;11580;-79
2023/11/27 04:55:03;;;;;;;;;15.00;15.00;;;;;;;;5048930;28;11555;-79
2023/11/27 04:57:31;;;;;;;;;13.25;11.50;;;;;;;;5051616;28;11625;-79
2023/11/27 05:00:00;;;;;;;;;16.50;12.50;;;;;;;;5049145;28;12280;-80
2023/11/27 05:02:27;;;;;;;;;15.25;13.00;;;;;;;;5046637;28;11492;-78
2023/11/27 05:04:55;;;;;;;;;14.50;10.50;;;;;;;;5046790;28;11545;-78
2023/11/27 05:07:29;;;;;;;;;13.25;13.25;;;;;;;;5054112;28;11532;-82
2023/11/27 05:09:59;;;;;;;;;14.00;12.00;;;;;;;;5046504;28;11554;-78
2023/11/27 05:12:26;;;;;;;;;13.00;11.25;;;;;;;;5046241;28;11660;-79
2023/11/27 05:14:56;;;;;;;;;14.50;14.50;;;;;;;;5047363;28;11595;-79
2023/11/27 05:17:25;;;;;;;;;14.50;11.75;;;;;;;;5048323;28;11583;-81
2023/11/27 05:19:52;;;;;;;;;13.25;13.25;;;;;;;;5050994;28;11690;-80
2023/11/27 05:22:19;;;;;;;;;11.50;11.50;;;;;;;;5051030;28;11588;-80
2023/11/27 05:24:47;;;;;;;;;11.00;10.00;;;;;;;;5051285;28;11534;-80
2023/11/27 05:27:14;;;;;;;;;16.00;15.00;;;;;;;;5050087;28;11546;-80
2023/11/27 05:29:41;;;;;;;;;13.00;13.00;;;;;;;;5050875;28;11586;-80
2023/11/27 05:32:08;;;;;;;;;11.75;11.75;;;;;;;;5049887;28;11601;-80
2023/11/27 05:34:41;;;;;;;;;17.50;15.50;;;;;;;;5050930;28;11534;-80
2023/11/27 05:37:08;;;;;;;;;14.25;12.25;;;;;;;;5050413;28;11677;-80
2023/11/27 05:39:37;;;;;;;;;14.00;13.25;;;;;;;;5051221;28;11569;-80
2023/11/27 05:42:04;;;;;;;;;13.00;13.00;;;;;;;;5046118;28;11600;-80
2023/11/27 05:44:32;;;;;;;;;16.50;12.50;;;;;;;;5042685;28;11564;-81
2023/11/27 05:46:59;;;;;;;;;13.00;13.00;;;;;;;;5050409;28;11548;-81
2023/11/27 05:49:30;;;;;;;;;12.25;12.25;;;;;;;;5051149;28;11638;-81
2023/11/27 05:51:59;;;;;;;;;13.00;13.00;;;;;;;;5050558;28;12339;-81
2023/11/27 05:54:26;;;;;;;;;15.00;12.75;;;;;;;;5050782;28;11552;-80
2023/11/27 05:56:54;;;;;;;;;5.00;5.00;;;;;;;;5050665;28;11546;-81
2023/11/27 05:59:21;;;;;;;;;18.00;15.50;;;;;;;;5051477;28;11527;-80
2023/11/27 06:01:49;;;;;;;;;11.00;11.00;;;;;;;;5052772;28;11542;-81
2023/11/27 06:04:16;;;;;;;;;17.00;14.50;;;;;;;;5053860;28;11580;-85
2023/11/27 06:06:43;;;;;;;;;5.00;3.00;;;;;;;;5055524;28;11549;-85
2023/11/27 06:09:12;;;;;;;;;11.50;10.00;;;;;;;;5054116;28;11516;-80
2023/11/27 06:11:39;;;;;;;;;12.50;11.00;;;;;;;;5042549;28;11543;-78
2023/11/27 06:14:07;;;;;;;;;18.00;13.75;;;;;;;;5054246;28;11548;-81
2023/11/27 06:16:34;;;;;;;;;12.75;12.00;;;;;;;;5055304;28;11531;-80
2023/11/27 06:19:01;;;;;;;;;11.25;11.25;;;;;;;;5052035;28;11577;-78
2023/11/27 06:21:29;;;;;;;;;11.00;8.50;;;;;;;;5050906;28;11555;-82
2023/11/27 06:23:56;;;;;;;;;13.25;10.00;;;;;;;;5051887;28;11490;-77
2023/11/27 06:26:25;;;;;;;;;14.00;14.00;;;;;;;;5049719;28;12395;-82
2023/11/27 06:28:52;;;;;;;;;15.75;13.00;;;;;;;;5052315;28;12360;-80
2023/11/27 06:31:19;;;;;;;;;15.00;13.50;;;;;;;;5050143;28;12245;-79
2023/11/27 06:33:47;;;;;;;;;18.50;16.50;;;;;;;;5049646;28;11536;-80
2023/11/27 06:36:14;;;;;;;;;12.50;11.00;;;;;;;;5049512;28;11613;-79
2023/11/27 06:38:41;;;;;;;;;12.75;12.50;;;;;;;;5049488;28;11543;-79
2023/11/27 06:41:08;;;;;;;;;15.75;12.50;;;;;;;;5049818;28;11525;-77
2023/11/27 06:43:37;;;;;;;;;14.00;11.25;;;;;;;;5049796;28;11666;-80
2023/11/27 06:46:05;;;;;;;;;17.50;15.00;;;;;;;;5049351;28;11525;-76
2023/11/27 06:48:32;;;;;;;;;15.75;15.25;;;;;;;;5048854;28;12313;-74
2023/11/27 06:50:59;;;;;;;;;17.00;15.50;;;;;;;;5050582;28;11551;-76
2023/11/27 06:53:33;;;;;;;;;16.50;16.50;;;;;;;;5051670;28;11710;-75
2023/11/27 06:56:01;;;;;;;;;12.25;12.25;;;;;;;;5049268;28;11554;-75
2023/11/27 06:58:30;;;;;;;;;12.50;12.50;;;;;;;;5049158;28;11632;-74
2023/11/27 07:01:01;;;;;;;;;16.00;12.75;;;;;;;;5042168;28;11525;-76
2023/11/27 07:03:29;;;;;;;;;16.25;15.25;;;;;;;;5050020;28;11536;-76
2023/11/27 07:06:02;;;;;;;;;16.00;14.75;;;;;;;;5050114;28;11575;-76
2023/11/27 07:08:29;;;;;;;;;14.00;11.75;;;;;;;;5044063;28;11542;-76
2023/11/27 07:10:56;;;;;;;;;15.25;15.25;;;;;;;;5048648;28;11670;-76
2023/11/27 07:13:25;;;;;;;;;13.25;13.25;;;;;;;;5050585;28;11690;-75
2023/11/27 07:15:52;;;;;;;;;13.75;13.75;;;;;;;;5049660;28;11551;-75
2023/11/27 07:18:23;;;;;;;;;17.00;17.00;;;;;;;;5049206;28;11674;-76
2023/11/27 07:20:50;;;;;;;;;16.25;16.25;;;;;;;;5048436;28;11561;-75
2023/11/27 07:23:18;;;;;;;;;17.00;17.00;;;;;;;;5048632;28;12428;-75
2023/11/27 07:25:45;;;;;;;;;22.75;19.25;;;;;;;;5048521;28;11535;-75
2023/11/27 07:28:12;;;;;;;;;15.00;15.00;;;;;;;;5048649;28;11533;-75
2023/11/27 07:30:39;;;;;;;;;14.25;12.00;;;;;;;;5048039;28;11502;-78
2023/11/27 07:33:06;;;;;;;;;16.00;16.00;;;;;;;;5048557;28;12512;-76
2023/11/27 07:35:36;;;;;;;;;17.00;16.25;;;;;;;;5048378;28;11589;-77
2023/11/27 07:38:03;;;;;;;;;17.25;17.25;;;;;;;;5048530;28;11559;-79
2023/11/27 07:40:31;;;;;;;;;18.75;16.50;;;;;;;;5047508;28;11567;-80
2023/11/27 07:42:58;;;;;;;;;17.50;17.50;;;;;;;;5048740;28;12390;-75
2023/11/27 07:45:26;;;;;;;;;20.00;18.50;;;;;;;;5048606;28;12325;-78
2023/11/27 07:48:06;;;;;;;;;20.00;20.00;;;;;;;;5049416;28;11552;-81
2023/11/27 07:50:35;;;;;;;;;21.50;21.50;;;;;;;;5038860;28;11597;-76
2023/11/27 07:53:03;;;;;;;;;19.50;17.25;;;;;;;;5052215;28;11766;-78
2023/11/27 07:55:32;;;;;;;;;23.25;20.75;;;;;;;;5052911;28;11579;-76
2023/11/27 07:58:00;;;;;;;;;23.50;21.00;;;;;;;;5051108;28;11552;-76
2023/11/27 08:00:31;;;;;;;;;17.75;17.75;;;;;;;;5053191;28;11449;-78
2023/11/27 08:02:58;;;;;;;;;17.25;17.25;;;;;;;;5051332;28;11565;-75
2023/11/27 08:05:27;;;;;;;;;20.25;20.25;;;;;;;;5051871;28;11553;-78
2023/11/27 08:07:56;;;;;;;;;20.00;16.00;;;;;;;;5036813;28;12338;-73
2023/11/27 08:10:23;;;;;;;;;18.00;18.00;;;;;;;;5048097;28;12371;-73
2023/11/27 08:12:50;;;;;;;;;22.25;22.25;;;;;;;;5047985;28;11682;-73
2023/11/27 08:15:19;;;;;;;;;22.25;18.75;;;;;;;;5050178;28;11629;-77
2023/11/27 08:17:46;;;;;;;;;24.00;21.75;;;;;;;;5048568;28;11562;-82
2023/11/27 08:20:15;;;;;;;;;25.00;22.25;;;;;;;;5047443;28;11559;-78
2023/11/27 08:22:46;;;;;;;;;21.50;21.50;;;;;;;;5047582;28;12355;-79
2023/11/27 08:25:16;;;;;;;;;21.00;21.00;;;;;;;;5047851;28;11650;-79
2023/11/27 08:27:44;;;;;;;;;25.25;23.75;;;;;;;;5047819;28;11586;-80
2023/11/27 08:30:11;;;;;;;;;24.00;22.00;;;;;;;;5046866;28;11558;-79
2023/11/27 08:32:39;;;;;;;;;27.50;23.00;;;;;;;;5047013;28;11636;-79
2023/11/27 08:35:08;;;;;;;;;23.75;23.75;;;;;;;;5046755;28;11634;-79
2023/11/27 08:37:36;;;;;;;;;24.75;24.75;;;;;;;;5047151;28;11706;-76
2023/11/27 08:40:06;;;;;;;;;20.25;20.25;;;;;;;;5046880;28;11590;-78
2023/11/27 08:42:35;;;;;;;;;23.50;20.25;;;;;;;;5036217;28;11543;-77
2023/11/27 08:45:10;;;;;;;;;20.25;17.50;;;;;;;;5046435;28;11593;-77
2023/11/27 08:47:38;;;;;;;;;20.50;20.50;;;;;;;;5047176;28;11543;-80
2023/11/27 08:50:07;;;;;;;;;24.25;23.25;;;;;;;;5046895;28;11561;-78
2023/11/27 08:52:35;;;;;;;;;22.00;22.00;;;;;;;;5050449;28;11566;-76
2023/11/27 08:55:05;;;;;;;;;25.50;24.25;;;;;;;;5050843;28;12382;-79
2023/11/27 08:57:32;;;;;;;;;7.25;6.00;;;;;;;;5051465;28;11559;-76
2023/11/27 09:00:12;;;;;;;;;19.25;19.25;;;;;;;;5050722;28;11498;-76
2023/11/27 09:02:39;;;;;;;;;21.25;21.25;;;;;;;;5050673;28;11528;-75
2023/11/27 09:05:07;;;;;;;;;21.50;19.00;;;;;;;;5050941;28;11676;-75
2023/11/27 09:07:34;;;;;;;;;22.75;20.25;;;;;;;;5048303;28;11555;-76
2023/11/27 09:10:04;;;;;;;;;22.25;17.50;;;;;;;;5038600;28;11651;-80
2023/11/27 09:12:32;;;;;;;;;18.75;18.25;;;;;;;;5050620;28;11621;-81
2023/11/27 09:15:00;;;;;;;;;16.50;16.50;;;;;;;;5050830;28;11565;-80
2023/11/27 09:17:28;;;;;;;;;24.75;24.75;;;;;;;;5051183;28;11547;-77
2023/11/27 09:19:56;;;;;;;;;17.50;16.50;;;;;;;;5051466;28;11546;-81
2023/11/27 09:22:24;;;;;;;;;24.25;19.25;;;;;;;;5047000;28;11670;-81
2023/11/27 09:24:51;;;;;;;;;18.25;17.75;;;;;;;;5050702;28;11567;-80
2023/11/27 09:27:18;;;;;;;;;21.75;19.50;;;;;;;;5050513;28;11557;-80
2023/11/27 09:29:45;;;;;;;;;19.75;17.50;;;;;;;;5051141;28;11548;-80
2023/11/27 09:32:14;;;;;;;;;16.50;16.00;;;;;;;;5049797;28;11525;-79
2023/11/27 09:34:41;;;;;;;;;17.75;17.75;;;;;;;;5051586;28;11508;-79
2023/11/27 09:37:08;;;;;;;;;16.50;16.50;;;;;;;;5052280;28;11583;-81
2023/11/27 09:39:36;;;;;;;;;19.50;16.00;;;;;;;;5051528;28;11599;-78
2023/11/27 09:42:05;;;;;;;;;21.00;17.75;;;;;;;;5049840;28;11611;-77
2023/11/27 09:44:32;;;;;;;;;17.25;17.25;;;;;;;;5053653;28;11551;-78
2023/11/27 09:47:02;;;;;;;;;9.50;9.50;;;;;;;;5043852;28;11487;-78
2023/11/27 09:49:31;;;;;;;;;15.50;15.50;;;;;;;;5038443;28;11589;-77
2023/11/27 09:52:00;;;;;;;;;14.00;12.00;;;;;;;;5048575;28;11521;-77
2023/11/27 09:54:33;;;;;;;;;13.00;13.00;;;;;;;;5046564;28;12309;-77
2023/11/27 09:57:02;;;;;;;;;12.25;10.25;;;;;;;;5051018;28;11509;-77
2023/11/27 09:59:30;;;;;;;;;14.00;14.00;;;;;;;;5050726;28;11592;-78
2023/11/27 10:02:00;;;;;;;;;17.00;17.00;;;;;;;;5051695;28;11445;-75
2023/11/27 10:04:27;;;;;;;;;14.50;12.50;;;;;;;;5049885;28;11472;-77
2023/11/27 10:06:56;;;;;;;;;12.75;11.75;;;;;;;;5050202;28;11499;-76
2023/11/27 10:09:23;;;;;;;;;15.75;12.75;;;;;;;;5049652;28;11548;-78
2023/11/27 10:11:51;;;;;;;;;15.75;12.00;;;;;;;;5049628;28;11583;-77
2023/11/27 10:14:20;;;;;;;;;12.25;12.25;;;;;;;;5049580;28;11612;-75
2023/11/27 10:16:49;;;;;;;;;9.50;9.50;;;;;;;;5049592;28;11509;-78
2023/11/27 10:19:19;;;;;;;;;11.00;11.00;;;;;;;;5049799;28;11601;-77
2023/11/27 10:21:47;;;;;;;;;14.25;12.75;;;;;;;;5050027;28;12412;-76
2023/11/27 10:24:16;;;;;;;;;9.00;9.00;;;;;;;;5048693;28;11606;-76
2023/11/27 10:26:45;;;;;;;;;9.00;7.75;;;;;;;;5049675;28;11580;-78
2023/11/27 10:29:15;;;;;;;;;8.00;8.00;;;;;;;;5049255;28;11433;-78
2023/11/27 10:31:44;;;;;;;;;8.00;8.00;;;;;;;;5048917;28;11383;-75
2023/11/27 10:34:11;;;;;;;;;7.75;7.75;;;;;;;;5049257;28;11461;-77
2023/11/27 10:36:39;;;;;;;;;6.75;6.75;;;;;;;;5049728;28;11474;-76
2023/11/27 10:39:14;;;;;;;;;7.00;7.00;;;;;;;;5049194;28;11445;-76
2023/11/27 10:41:45;;;;;;;;;11.75;9.00;;;;;;;;5044216;28;11473;-75
2023/11/27 10:44:14;;;;;;;;;9.00;9.00;;;;;;;;5049133;28;12228;-76
2023/11/27 10:46:42;;;;;;;;;9.50;7.75;;;;;;;;5049090;28;12446;-75
2023/11/27 10:49:14;;;;;;;;;6.00;6.00;;;;;;;;5049780;28;11455;-75
2023/11/27 10:51:42;;;;;;;;;7.00;7.00;;;;;;;;5050062;28;11493;-77
2023/11/27 10:54:11;;;;;;;;;7.25;7.25;;;;;;;;5051506;28;11446;-76
2023/11/27 10:56:39;;;;;;;;;3.25;3.25;;;;;;;;5047975;28;11441;-76
2023/11/27 10:59:09;;;;;;;;;8.50;6.75;;;;;;;;5043258;28;11225;-76
2023/11/27 11:01:39;;;;;;;;;7.00;7.00;;;;;;;;5051786;28;11110;-76
2023/11/27 11:04:13;;;;;;;;;8.00;8.00;;;;;;;;5053064;28;11111;-76
2023/11/27 11:06:46;;;;;;;;;7.00;4.75;;;;;;;;5051881;28;11455;-74
2023/11/27 11:09:16;;;;;;;;;7.50;6.50;;;;;;;;5048441;28;11814;-75
2023/11/27 11:11:50;;;;;;;;;6.50;4.00;;;;;;;;5052323;28;11467;-78
2023/11/27 11:14:19;;;;;;;;;5.00;3.75;;;;;;;;5050369;28;11116;-77
2023/11/27 11:16:55;;;;;;;;;7.00;4.75;;;;;;;;5048328;28;11002;-77
2023/11/27 11:19:31;;;;;;;;;5.50;5.50;;;;;;;;5049168;28;12038;-75
2023/11/27 11:22:06;;;;;;;;;4.00;4.00;;;;;;;;5049596;28;11138;-77
2023/11/27 11:24:41;;;;;;;;;7.00;7.00;;;;;;;;5050619;28;11074;-80
2023/11/27 11:27:16;;;;;;;;;3.50;3.50;;;;;;;;5054427;28;11051;-79
2023/11/27 11:29:46;;;;;;;;;3.00;3.00;;;;;;;;5050308;28;10995;-80
2023/11/27 11:32:16;;;;;;;;;5.75;4.50;;;;;;;;5048007;28;11008;-78
2023/11/27 11:34:45;;;;;;;;;1.75;1.75;;;;;;;;5042382;28;11086;-78
2023/11/27 11:37:14;;;;;;;;;6.50;6.25;;;;;;;;5040504;28;10897;-78
2023/11/27 11:39:46;;;;;;;;;4.00;4.00;;;;;;;;5036866;28;11000;-77
2023/11/27 11:42:17;;;;;;;;;8.50;7.00;;;;;;;;5042330;28;10901;-81
2023/11/27 11:45:05;;;;;;;;;3.00;3.00;;;;;;;;5050363;28;11042;-74
2023/11/27 11:47:33;;;;;;;;;5.75;5.75;;;;;;;;5048655;28;11793;-75
2023/11/27 11:50:24;;;;;;;;;3.75;3.75;;;;;;;;5049673;28;10990;-76
2023/11/27 11:52:52;;;;;;;;;3.00;3.00;;;;;;;;5043654;28;11273;-77
2023/11/27 11:55:26;;;;;;;;;4.00;4.00;;;;;;;;5049262;28;10977;-77
2023/11/27 11:58:08;;;;;;;;;2.50;2.50;;;;;;;;5048237;28;10938;-76
2023/11/27 12:00:45;;;;;;;;;3.00;3.00;;;;;;;;5046245;28;10715;-77
2023/11/27 12:03:15;;;;;;;;;3.75;3.75;;;;;;;;5047998;28;10926;-78
2023/11/27 12:05:46;;;;;;;;;3.00;3.00;;;;;;;;5048767;28;10968;-78
2023/11/27 12:08:14;;;;;;;;;3.50;3.00;;;;;;;;5047216;28;10881;-78
2023/11/27 12:10:42;;;;;;;;;3.00;3.00;;;;;;;;5048200;28;10881;-77
2023/11/27 12:13:09;;;;;;;;;6.00;6.00;;;;;;;;5047502;28;10830;-79
2023/11/27 12:15:38;;;;;;;;;3.50;3.50;;;;;;;;5048253;28;10817;-81
2023/11/27 12:18:09;;;;;;;;;2.00;2.00;;;;;;;;5048174;28;11598;-77
2023/11/27 12:20:36;;;;;;;;;4.00;4.00;;;;;;;;5046881;28;10817;-79
2023/11/27 12:23:05;;;;;;;;;2.50;2.50;;;;;;;;5047745;28;10872;-78
2023/11/27 12:25:32;;;;;;;;;2.50;2.50;;;;;;;;5047115;28;10692;-76
2023/11/27 12:27:59;;;;;;;;;3.50;2.00;;;;;;;;5047693;28;11647;-78
2023/11/27 12:30:27;;;;;;;;;3.50;3.50;;;;;;;;5046955;28;11166;-76
2023/11/27 12:32:56;;;;;;;;;3.00;3.00;;;;;;;;5047509;28;10654;-78
2023/11/27 12:35:26;;;;;;;;;2.00;2.00;;;;;;;;5047856;28;10693;-78
2023/11/27 12:37:54;;;;;;;;;3.25;2.00;;;;;;;;5048598;28;10781;-77
2023/11/27 12:40:21;;;;;;;;;2.75;2.75;;;;;;;;5049674;28;10689;-77
2023/11/27 12:42:51;;;;;;;;;2.50;2.50;;;;;;;;5048296;28;10545;-81
2023/11/27 12:45:21;;;;;;;;;3.00;3.00;;;;;;;;5047465;28;10595;-75
2023/11/27 12:47:50;;;;;;;;;2.00;2.00;;;;;;;;5047641;28;10671;-76
2023/11/27 12:50:25;;;;;;;;;3.00;3.00;;;;;;;;5047357;28;10410;-77
2023/11/27 12:53:02;;;;;;;;;4.00;4.00;;;;;;;;5047297;28;10554;-77
2023/11/27 12:55:36;;;;;;;;;3.75;3.75;;;;;;;;5035947;28;10820;-77
2023/11/27 12:58:10;;;;;;;;;2.00;2.00;;;;;;;;5046781;28;10746;-75
2023/11/27 13:00:39;;;;;;;;;3.00;3.00;;;;;;;;5047389;28;10503;-80
2023/11/27 13:03:11;;;;;;;;;3.75;3.75;;;;;;;;5047651;28;10481;-80
2023/11/27 13:05:41;;;;;;;;;4.00;2.50;;;;;;;;5047764;28;10402;-78
2023/11/27 13:08:08;;;;;;;;;2.00;2.00;;;;;;;;5047123;28;11220;-79
2023/11/27 13:10:42;;;;;;;;;1.00;1.00;;;;;;;;5047930;28;10523;-78
2023/11/27 13:13:10;;;;;;;;;3.00;3.00;;;;;;;;5048973;28;10276;-80
2023/11/27 13:15:38;;;;;;;;;3.00;3.00;;;;;;;;5050079;28;10387;-76
2023/11/27 13:18:15;;;;;;;;;2.25;2.25;;;;;;;;5050674;28;10467;-77
2023/11/27 13:20:48;;;;;;;;;0.25;0.25;;;;;;;;5047966;28;10499;-78
2023/11/27 13:23:16;;;;;;;;;2.00;2.00;;;;;;;;5044875;28;10429;-79
2023/11/27 13:25:44;;;;;;;;;1.75;1.75;;;;;;;;5046191;28;10299;-80
2023/11/27 13:28:16;;;;;;;;;3.00;1.25;;;;;;;;5043797;28;10596;-76
2023/11/27 13:30:44;;;;;;;;;2.25;2.25;;;;;;;;5051900;28;10834;-80
2023/11/27 13:33:12;;;;;;;;;3.00;3.00;;;;;;;;5049852;28;10324;-76
2023/11/27 13:35:41;;;;;;;;;1.00;1.00;;;;;;;;5047284;28;10476;-78
2023/11/27 13:38:17;;;;;;;;;3.00;3.00;;;;;;;;5048312;28;10662;-76
2023/11/27 13:40:48;;;;;;;;;4.00;2.00;;;;;;;;5053156;28;10345;-75
2023/11/27 13:43:17;;;;;;;;;2.00;2.00;;;;;;;;5052375;28;10319;-76
2023/11/27 13:45:45;;;;;;;;;2.00;2.00;;;;;;;;5051128;28;10405;-76
2023/11/27 13:48:19;;;;;;;;;2.75;2.75;;;;;;;;5049916;28;10418;-76
2023/11/27 13:50:47;;;;;;;;;3.00;3.00;;;;;;;;5050713;28;10362;-77
2023/11/27 13:53:15;;;;;;;;;3.00;3.00;;;;;;;;5049733;28;10488;-76
2023/11/27 13:55:46;;;;;;;;;2.75;2.00;;;;;;;;5050339;28;10450;-75
2023/11/27 13:58:13;;;;;;;;;3.00;3.00;;;;;;;;5050483;28;10223;-77
2023/11/27 14:00:48;;;;;;;;;2.50;2.50;;;;;;;;5050495;28;10294;-80
2023/11/27 14:03:18;;;;;;;;;3.00;3.00;;;;;;;;5050854;28;11137;-77
2023/11/27 14:05:49;;;;;;;;;3.00;3.00;;;;;;;;5050806;28;10430;-78
2023/11/27 14:08:21;;;;;;;;;3.00;3.00;;;;;;;;5051268;28;10331;-78
2023/11/27 14:13:36;;;;;;;;;4.00;4.00;;;;;;;;5050883;28;10295;-79
2023/11/27 14:16:13;;;;;;;;;3.75;3.75;;;;;;;;5050532;28;10273;-79
2023/11/27 14:18:50;;;;;;;;;4.00;4.00;;;;;;;;5045542;28;10147;-78
2023/11/27 14:24:12;;;;;;;;;3.25;3.25;;;;;;;;5049441;28;10220;-77
2023/11/27 14:27:16;;;;;;;;;5.00;5.00;;;;;;;;5050333;28;11123;-78
2023/11/27 14:29:44;;;;;;;;;4.00;2.00;;;;;;;;5040066;28;10409;-76
2023/11/27 14:32:10;;;;;;;;;4.25;4.25;;;;;;;;5048814;28;10324;-78
2023/11/27 14:34:37;;;;;;;;;6.75;5.00;;;;;;;;5050187;28;10470;-78
2023/11/27 14:37:06;;;;;;;;;5.75;4.00;;;;;;;;5049742;28;10464;-80
2023/11/27 14:39:38;;;;;;;;;4.00;4.00;;;;;;;;5050643;28;10537;-81
2023/11/27 14:42:08;;;;;;;;;5.75;5.75;;;;;;;;5048961;28;10593;-81
2023/11/27 14:44:36;;;;;;;;;4.50;4.00;;;;;;;;5050183;28;11253;-76